UKBBUKDD

Guest
Details From UKBB - Boryspil
To UKDD - Dnipropetrovsk Intl
Flight Number -
Tags Decoded
Created
Modified
Stats Distance 919 nm / 1,701 km
Max Altitude 0 ft / 0 m
Waypoints 3
Social Downloads 0
Likes 0
Share VATSIM

Download

Looking for another format? Having issues loading an existing format? Contact us
Advertisement - Login to hide

Notes

Decoded

Route

UKBB KN UKDD

ID Type Via Altitude Latitude Longitude Leg Dist Tot Dist Heading (true) Name
O UKBB APT - 0 ft / 0 m 50.36056˚ 30.90660˚ - 0 nm - -
KN NDB - 0 ft / 0 m 56.30000˚ 37.71667˚ 431 nm 431 nm 32° / 37° -
O UKDD APT - 0 ft / 0 m 48.35722˚ 35.08126˚ 486 nm 918 nm 193° / 190° -

Altitude Profile

Advertisement - Login to hide

Weather


0- 5 10 15 20 25 30 35+ Temperature / ° C

Clouds and Precipitation
Forecast for 2017-12-12 00:00 UTC. Updated 2 hours ago

Ground ~20,000 ft ~40,000 ft Winds

UKBB

Details ICAO UKBB (KBP)
Name Boryspil
Region Ukraine
Timezone Europe/Kiev (UTC+2.0)
Stats Elevation 421 ft / 128 m (AMSL)
Location 50.339472° 30.892903°
Runways 2
Magnetic Variation 7.668° E

METAR

UKBB 120030Z 16003MPS CAVOK 01/00 Q1009 R18L/821045 NOSIG

Decode

TAF

TAF AMD UKBB 111834Z 1118/1218 17005G11MPS 4000 BR BKN010 TEMPO 1118/1122 1000 -SHSN BR BKN003 SCT015CB PROB40 TEMPO 1118/1122 -FZRA TEMPO 1122/1208 0400 -SHRASN FG OVC002 SCT015CB BECMG 1208/1209 6000 NSW BKN012 TX05/1212Z TNM00/1118Z

Decode

Departure Runways

ID Width Length Bearing (true) Bearing (mag) Surface Threshold Offset Overrun Length
18L 197 ft / 60 m 13,152 ft / 4,009 m 182.72° 175.05° Concrete 0 ft / 0 m 295 ft / 90 m
18R 207 ft / 63 m 11,470 ft / 3,496 m 182.62° 174.95° Concrete 0 ft / 0 m 164 ft / 50 m
36L 207 ft / 63 m 11,470 ft / 3,496 m 2.62° 354.95° Concrete 0 ft / 0 m 164 ft / 50 m
36R 197 ft / 60 m 13,152 ft / 4,009 m 2.72° 355.05° Concrete 0 ft / 0 m 295 ft / 90 m

UKDD

Details ICAO UKDD (DNK)
Name Dnipropetrovsk Intl
Region Ukraine
Timezone Europe/Kiev (UTC+2.0)
Stats Elevation 481 ft / 147 m (AMSL)
Location 48.357222° 35.100556°
Runways 1
Magnetic Variation 7.842° E

METAR

UKDD 120030Z 22006MPS 180V250 CAVOK 05/04 Q1015 R26/210170 NOSIG

Decode

TAF

Not found

Destination Runways

ID Width Length Bearing (true) Bearing (mag) Surface Threshold Offset Overrun Length
09 144 ft / 44 m 9,359 ft / 2,853 m 89.99° 82.15° Concrete 0 ft / 0 m 0 ft / 0 m
27 144 ft / 44 m 9,359 ft / 2,853 m 270.01° 262.17° Concrete 0 ft / 0 m 0 ft / 0 m

Approach Navaids

Runway Type Ident Frequency Range Bearing (true) Bearing (mag) Slope Elevation
09 Localiser IDP 109.50 MHz 18 nm / 33 km 80.68° 72.84° - 481 ft / 147 m (AMSL)
09 Glidescope IDP 109.50 MHz 10 nm / 19 km 90.00° 82.16° 2.50° 481 ft / 147 m (AMSL)
27 Localiser IDR 110.30 MHz 18 nm / 33 km 269.98° 262.14° - 481 ft / 147 m (AMSL)
27 Glidescope IDR 110.30 MHz 10 nm / 19 km 270.00° 262.16° 3.00° 481 ft / 147 m (AMSL)

Popular Alternatives